sensor_id;sensor_type;location;lat;lon;timestamp;pressure;altitude;pressure_sealevel;temperature;humidity
21433;BME280;18592;49.708;10.900;2024-03-25T00:01:14;97617.41;;;14.81;54.98
21433;BME280;18592;49.708;10.900;2024-03-25T00:03:14;97619.50;;;14.70;55.05
21433;BME280;18592;49.708;10.900;2024-03-25T00:05:15;97619.59;;;14.65;55.45
21433;BME280;18592;49.708;10.900;2024-03-25T00:07:20;97620.50;;;14.60;55.63
21433;BME280;18592;49.708;10.900;2024-03-25T00:09:20;97626.56;;;14.57;55.50
21433;BME280;18592;49.708;10.900;2024-03-25T00:11:26;97618.97;;;14.54;55.51
21433;BME280;18592;49.708;10.900;2024-03-25T00:13:40;97617.91;;;14.50;55.89
21433;BME280;18592;49.708;10.900;2024-03-25T00:15:41;97613.56;;;14.49;55.47
21433;BME280;18592;49.708;10.900;2024-03-25T00:17:42;97617.41;;;14.48;55.62
21433;BME280;18592;49.708;10.900;2024-03-25T00:19:42;97625.94;;;14.47;55.47
21433;BME280;18592;49.708;10.900;2024-03-25T00:21:43;97615.56;;;14.44;55.73
21433;BME280;18592;49.708;10.900;2024-03-25T00:23:43;97617.19;;;14.45;55.61
21433;BME280;18592;49.708;10.900;2024-03-25T00:25:44;97621.06;;;14.44;55.45
21433;BME280;18592;49.708;10.900;2024-03-25T00:27:44;97620.56;;;14.42;54.66
21433;BME280;18592;49.708;10.900;2024-03-25T00:29:45;97621.97;;;14.39;55.75
21433;BME280;18592;49.708;10.900;2024-03-25T00:31:45;97617.56;;;14.38;55.40
21433;BME280;18592;49.708;10.900;2024-03-25T00:33:58;97610.44;;;14.37;55.54
21433;BME280;18592;49.708;10.900;2024-03-25T00:35:59;97617.88;;;14.37;55.57
21433;BME280;18592;49.708;10.900;2024-03-25T00:38:00;97620.63;;;14.37;55.71
21433;BME280;18592;49.708;10.900;2024-03-25T00:40:01;97615.16;;;14.37;55.52
21433;BME280;18592;49.708;10.900;2024-03-25T00:42:01;97614.31;;;14.36;55.51
21433;BME280;18592;49.708;10.900;2024-03-25T00:44:02;97617.56;;;14.38;55.64
21433;BME280;18592;49.708;10.900;2024-03-25T00:46:11;97614.31;;;14.36;55.49
21433;BME280;18592;49.708;10.900;2024-03-25T00:48:12;97615.94;;;14.37;55.32
21433;BME280;18592;49.708;10.900;2024-03-25T00:50:12;97608.03;;;14.36;55.71
21433;BME280;18592;49.708;10.900;2024-03-25T00:52:13;97616.75;;;14.38;55.74
21433;BME280;18592;49.708;10.900;2024-03-25T00:54:13;97614.84;;;14.38;55.81
21433;BME280;18592;49.708;10.900;2024-03-25T00:56:14;97613.72;;;14.39;55.67
21433;BME280;18592;49.708;10.900;2024-03-25T00:58:14;97612.09;;;14.38;55.89
21433;BME280;18592;49.708;10.900;2024-03-25T01:00:15;97619.22;;;14.39;55.67
21433;BME280;18592;49.708;10.900;2024-03-25T01:02:16;97612.09;;;14.38;55.60
21433;BME280;18592;49.708;10.900;2024-03-25T01:04:17;97613.72;;;14.39;55.95
21433;BME280;18592;49.708;10.900;2024-03-25T01:06:33;97617.25;;;14.40;55.85
21433;BME280;18592;49.708;10.900;2024-03-25T01:08:53;97611.50;;;14.41;55.85
21433;BME280;18592;49.708;10.900;2024-03-25T01:10:53;97606.84;;;14.42;55.89
21433;BME280;18592;49.708;10.900;2024-03-25T01:12:54;97605.72;;;14.43;55.94
21433;BME280;18592;49.708;10.900;2024-03-25T01:14:54;97619.41;;;14.43;56.23
21433;BME280;18592;49.708;10.900;2024-03-25T01:16:55;97604.59;;;14.44;56.18
21433;BME280;18592;49.708;10.900;2024-03-25T01:18:57;97612.53;;;14.45;56.05
21433;BME280;18592;49.708;10.900;2024-03-25T01:21:05;97609.28;;;14.43;56.09
21433;BME280;18592;49.708;10.900;2024-03-25T01:23:06;97608.97;;;14.45;56.15
21433;BME280;18592;49.708;10.900;2024-03-25T01:25:07;97607.34;;;14.44;55.92
21433;BME280;18592;49.708;10.900;2024-03-25T01:27:07;97607.34;;;14.44;55.99
21433;BME280;18592;49.708;10.900;2024-03-25T01:29:08;97612.84;;;14.44;55.50
21433;BME280;18592;49.708;10.900;2024-03-25T01:31:09;97606.53;;;14.43;55.73
21433;BME280;18592;49.708;10.900;2024-03-25T01:33:09;97622.47;;;14.41;55.76
21433;BME280;18592;49.708;10.900;2024-03-25T01:35:10;97615.34;;;14.40;55.51
21433;BME280;18592;49.708;10.900;2024-03-25T01:37:13;97619.72;;;14.41;55.76
21433;BME280;18592;49.708;10.900;2024-03-25T01:39:14;97620.84;;;14.40;55.61
21433;BME280;18592;49.708;10.900;2024-03-25T01:41:20;97616.16;;;14.41;55.52
21433;BME280;18592;49.708;10.900;2024-03-25T01:43:23;97621.97;;;14.39;55.12
21433;BME280;18592;49.708;10.900;2024-03-25T01:45:29;97624.16;;;14.37;54.79
21433;BME280;18592;49.708;10.900;2024-03-25T01:47:31;97617.56;;;14.38;55.29
21433;BME280;18592;49.708;10.900;2024-03-25T01:49:33;97619.28;;;14.34;55.02
21433;BME280;18592;49.708;10.900;2024-03-25T01:51:36;97630.25;;;14.34;55.31
21433;BME280;18592;49.708;10.900;2024-03-25T01:53:38;97623.13;;;14.33;55.32
21433;BME280;18592;49.708;10.900;2024-03-25T01:55:39;97625.06;;;14.33;55.33
21433;BME280;18592;49.708;10.900;2024-03-25T01:57:47;97619.28;;;14.34;55.91
21433;BME280;18592;49.708;10.900;2024-03-25T01:59:48;97622.03;;;14.34;55.44
21433;BME280;18592;49.708;10.900;2024-03-25T02:01:48;97616.25;;;14.36;55.49
21433;BME280;18592;49.708;10.900;2024-03-25T02:03:52;97619.81;;;14.36;55.76
21433;BME280;18592;49.708;10.900;2024-03-25T02:05:57;97620.63;;;14.37;55.48
21433;BME280;18592;49.708;10.900;2024-03-25T02:07:59;97617.06;;;14.36;55.48
21433;BME280;18592;49.708;10.900;2024-03-25T02:10:15;97625.56;;;14.35;55.48
21433;BME280;18592;49.708;10.900;2024-03-25T02:12:16;97626.41;;;14.35;55.41
21433;BME280;18592;49.708;10.900;2024-03-25T02:14:17;97620.09;;;14.35;55.41
21433;BME280;18592;49.708;10.900;2024-03-25T02:16:17;97625.28;;;14.36;55.75
21433;BME280;18592;49.708;10.900;2024-03-25T02:18:18;97628.84;;;14.37;55.64
21433;BME280;18592;49.708;10.900;2024-03-25T02:20:18;97628.53;;;14.38;55.86
21433;BME280;18592;49.708;10.900;2024-03-25T02:22:19;97625.50;;;14.40;55.74
21433;BME280;18592;49.708;10.900;2024-03-25T02:24:20;97627.13;;;14.41;55.78
21433;BME280;18592;49.708;10.900;2024-03-25T02:26:22;97621.34;;;14.42;55.83
21433;BME280;18592;49.708;10.900;2024-03-25T02:28:23;97626.81;;;14.42;55.68
21433;BME280;18592;49.708;10.900;2024-03-25T02:30:24;97633.13;;;14.43;55.71
21433;BME280;18592;49.708;10.900;2024-03-25T02:32:25;97632.03;;;14.44;55.90
21433;BME280;18592;49.708;10.900;2024-03-25T02:34:25;97634.47;;;14.45;55.89
21433;BME280;18592;49.708;10.900;2024-03-25T02:36:26;97637.72;;;14.47;55.89
21433;BME280;18592;49.708;10.900;2024-03-25T02:38:27;97638.53;;;14.48;55.90
21433;BME280;18592;49.708;10.900;2024-03-25T02:40:28;97638.25;;;14.49;56.06
21433;BME280;18592;49.708;10.900;2024-03-25T02:42:29;97642.31;;;14.52;56.33
21433;BME280;18592;49.708;10.900;2024-03-25T02:44:30;97640.38;;;14.52;56.11
21433;BME280;18592;49.708;10.900;2024-03-25T02:46:31;97648.31;;;14.54;55.96
21433;BME280;18592;49.708;10.900;2024-03-25T02:48:34;97647.19;;;14.55;56.13
21433;BME280;18592;49.708;10.900;2024-03-25T02:50:36;97644.97;;;14.57;56.04
21433;BME280;18592;49.708;10.900;2024-03-25T02:52:37;97639.19;;;14.58;56.34
21433;BME280;18592;49.708;10.900;2024-03-25T02:54:37;97641.63;;;14.60;55.98
21433;BME280;18592;49.708;10.900;2024-03-25T02:56:39;97646.00;;;14.61;55.88
21433;BME280;18592;49.708;10.900;2024-03-25T02:58:40;97651.19;;;14.62;55.93
21433;BME280;18592;49.708;10.900;2024-03-25T03:00:40;97645.41;;;14.64;55.84
21433;BME280;18592;49.708;10.900;2024-03-25T03:02:46;97644.28;;;14.65;55.85
21433;BME280;18592;49.708;10.900;2024-03-25T03:04:46;97646.75;;;14.67;55.67
21433;BME280;18592;49.708;10.900;2024-03-25T03:06:47;97645.09;;;14.66;55.44
21433;BME280;18592;49.708;10.900;2024-03-25T03:08:48;97653.31;;;14.66;55.63
21433;BME280;18592;49.708;10.900;2024-03-25T03:10:48;97651.09;;;14.68;55.82
21433;BME280;18592;49.708;10.900;2024-03-25T03:12:49;97650.00;;;14.69;55.74
21433;BME280;18592;49.708;10.900;2024-03-25T03:14:49;97655.47;;;14.69;55.34
21433;BME280;18592;49.708;10.900;2024-03-25T03:16:50;97652.72;;;14.69;55.59
21433;BME280;18592;49.708;10.900;2024-03-25T03:18:55;97652.41;;;14.70;55.57
21433;BME280;18592;49.708;10.900;2024-03-25T03:20:55;97660.38;;;14.72;55.48
21433;BME280;18592;49.708;10.900;2024-03-25T03:22:56;97652.16;;;14.72;55.68
21433;BME280;18592;49.708;10.900;2024-03-25T03:24:57;97651.00;;;14.73;55.45
21433;BME280;18592;49.708;10.900;2024-03-25T03:26:58;97649.91;;;14.74;55.53
21433;BME280;18592;49.708;10.900;2024-03-25T03:28:59;97646.34;;;14.73;55.38
21433;BME280;18592;49.708;10.900;2024-03-25T03:31:06;97650.22;;;14.72;55.51
21433;BME280;18592;49.708;10.900;2024-03-25T03:33:06;97653.25;;;14.71;55.22
21433;BME280;18592;49.708;10.900;2024-03-25T03:35:07;97650.50;;;14.71;55.09
21433;BME280;18592;49.708;10.900;2024-03-25T03:37:08;97653.25;;;14.71;55.07
21433;BME280;18592;49.708;10.900;2024-03-25T03:39:08;97660.38;;;14.72;55.12
21433;BME280;18592;49.708;10.900;2024-03-25T03:41:12;97655.72;;;14.72;55.08
21433;BME280;18592;49.708;10.900;2024-03-25T03:43:12;97649.41;;;14.72;55.24
21433;BME280;18592;49.708;10.900;2024-03-25T03:45:13;97649.91;;;14.74;55.23
21433;BME280;18592;49.708;10.900;2024-03-25T03:47:13;97652.66;;;14.74;55.19
21433;BME280;18592;49.708;10.900;2024-03-25T03:49:14;97658.13;;;14.74;55.14
21433;BME280;18592;49.708;10.900;2024-03-25T03:51:27;97659.56;;;14.71;54.94
21433;BME280;18592;49.708;10.900;2024-03-25T03:53:27;97666.13;;;14.70;54.49
21433;BME280;18592;49.708;10.900;2024-03-25T03:55:28;97662.06;;;14.68;54.58
21433;BME280;18592;49.708;10.900;2024-03-25T03:57:28;97663.19;;;14.67;54.73
21433;BME280;18592;49.708;10.900;2024-03-25T03:59:33;97674.16;;;14.67;54.58
21433;BME280;18592;49.708;10.900;2024-03-25T04:01:35;97667.56;;;14.68;54.51
21433;BME280;18592;49.708;10.900;2024-03-25T04:03:35;97670.28;;;14.68;54.78
21433;BME280;18592;49.708;10.900;2024-03-25T04:05:37;97668.69;;;14.67;54.64
21433;BME280;18592;49.708;10.900;2024-03-25T04:07:38;97674.16;;;14.67;55.05
21433;BME280;18592;49.708;10.900;2024-03-25T04:09:39;97675.28;;;14.66;54.74
21433;BME280;18592;49.708;10.900;2024-03-25T04:11:45;97685.13;;;14.67;54.95
21433;BME280;18592;49.708;10.900;2024-03-25T04:13:46;97681.25;;;14.68;55.17
21433;BME280;18592;49.708;10.900;2024-03-25T04:15:47;97676.31;;;14.70;55.17
21433;BME280;18592;49.708;10.900;2024-03-25T04:17:48;97676.00;;;14.71;55.19
21433;BME280;18592;49.708;10.900;2024-03-25T04:19:51;97677.94;;;14.71;55.14
21433;BME280;18592;49.708;10.900;2024-03-25T04:21:53;97670.53;;;14.71;55.22
21433;BME280;18592;49.708;10.900;2024-03-25T04:23:54;97679.56;;;14.72;55.16
21433;BME280;18592;49.708;10.900;2024-03-25T04:25:54;97683.13;;;14.72;54.99
21433;BME280;18592;49.708;10.900;2024-03-25T04:27:55;97686.16;;;14.71;55.14
21433;BME280;18592;49.708;10.900;2024-03-25T04:29:55;97697.94;;;14.71;55.15
21433;BME280;18592;49.708;10.900;2024-03-25T04:31:56;97694.38;;;14.71;54.97
21433;BME280;18592;49.708;10.900;2024-03-25T04:33:56;97695.22;;;14.71;54.90
21433;BME280;18592;49.708;10.900;2024-03-25T04:35:57;97703.13;;;14.73;55.26
21433;BME280;18592;49.708;10.900;2024-03-25T04:37:58;97700.38;;;14.73;55.36
21433;BME280;18592;49.708;10.900;2024-03-25T04:40:03;97709.16;;;14.75;55.25
21433;BME280;18592;49.708;10.900;2024-03-25T04:42:04;97709.94;;;14.75;55.39
21433;BME280;18592;49.708;10.900;2024-03-25T04:44:04;97715.44;;;14.75;55.21
21433;BME280;18592;49.708;10.900;2024-03-25T04:46:04;97708.03;;;14.76;55.44
21433;BME280;18592;49.708;10.900;2024-03-25T04:48:05;97720.66;;;14.77;55.30
21433;BME280;18592;49.708;10.900;2024-03-25T04:50:09;97717.91;;;14.77;55.21
21433;BME280;18592;49.708;10.900;2024-03-25T04:52:12;97722.56;;;14.76;55.45
21433;BME280;18592;49.708;10.900;2024-03-25T04:54:14;97727.75;;;14.78;55.11
21433;BME280;18592;49.708;10.900;2024-03-25T04:56:14;97724.22;;;14.77;54.83
21433;BME280;18592;49.708;10.900;2024-03-25T04:58:15;97730.47;;;14.78;55.01
21433;BME280;18592;49.708;10.900;2024-03-25T05:00:16;97725.81;;;14.78;55.00
21433;BME280;18592;49.708;10.900;2024-03-25T05:02:17;97727.75;;;14.78;54.80
21433;BME280;18592;49.708;10.900;2024-03-25T05:04:18;97725.81;;;14.78;54.79
21433;BME280;18592;49.708;10.900;2024-03-25T05:06:19;97726.94;;;14.77;54.80
21433;BME280;18592;49.708;10.900;2024-03-25T05:08:19;97734.34;;;14.77;54.88
21433;BME280;18592;49.708;10.900;2024-03-25T05:10:23;97738.19;;;14.76;54.64
21433;BME280;18592;49.708;10.900;2024-03-25T05:12:24;97739.34;;;14.75;54.63
21433;BME280;18592;49.708;10.900;2024-03-25T05:14:30;97736.88;;;14.73;54.64
21433;BME280;18592;49.708;10.900;2024-03-25T05:16:30;97734.13;;;14.73;54.74
21433;BME280;18592;49.708;10.900;2024-03-25T05:18:32;97744.28;;;14.73;54.69
21433;BME280;18592;49.708;10.900;2024-03-25T05:20:32;97748.16;;;14.72;54.82
21433;BME280;18592;49.708;10.900;2024-03-25T05:22:33;97748.97;;;14.72;54.79
21433;BME280;18592;49.708;10.900;2024-03-25T05:24:33;97750.59;;;14.73;55.05
21433;BME280;18592;49.708;10.900;2024-03-25T05:26:34;97747.84;;;14.73;54.94
21433;BME280;18592;49.708;10.900;2024-03-25T05:28:34;97756.06;;;14.73;55.13
21433;BME280;18592;49.708;10.900;2024-03-25T05:30:35;97752.22;;;14.74;55.00
21433;BME280;18592;49.708;10.900;2024-03-25T05:32:35;97754.66;;;14.76;55.20
21433;BME280;18592;49.708;10.900;2024-03-25T05:34:36;97763.41;;;14.78;55.11
21433;BME280;18592;49.708;10.900;2024-03-25T05:36:37;97752.44;;;14.78;54.84
21433;BME280;18592;49.708;10.900;2024-03-25T05:38:37;97759.56;;;14.79;55.03
21433;BME280;18592;49.708;10.900;2024-03-25T05:40:38;97754.38;;;14.77;54.80
21433;BME280;18592;49.708;10.900;2024-03-25T05:42:39;97753.75;;;14.80;55.11
21433;BME280;18592;49.708;10.900;2024-03-25T05:44:39;97755.41;;;14.81;55.19
21433;BME280;18592;49.708;10.900;2024-03-25T05:46:40;97749.91;;;14.81;55.18
21433;BME280;18592;49.708;10.900;2024-03-25T05:48:41;97757.84;;;14.83;54.86
21433;BME280;18592;49.708;10.900;2024-03-25T05:50:42;97762.53;;;14.82;54.51
21433;BME280;18592;49.708;10.900;2024-03-25T05:52:42;97763.03;;;14.84;54.52
21433;BME280;18592;49.708;10.900;2024-03-25T05:54:43;97767.72;;;14.84;54.13
21433;BME280;18592;49.708;10.900;2024-03-25T05:56:43;97773.19;;;14.84;54.45
21433;BME280;18592;49.708;10.900;2024-03-25T05:58:44;97777.03;;;14.83;54.50
21433;BME280;18592;49.708;10.900;2024-03-25T06:00:48;97772.69;;;14.82;54.73
21433;BME280;18592;49.708;10.900;2024-03-25T06:02:49;97779.00;;;14.82;55.04
21433;BME280;18592;49.708;10.900;2024-03-25T06:04:49;97779.78;;;14.83;54.78
21433;BME280;18592;49.708;10.900;2024-03-25T06:06:50;97769.94;;;14.82;55.09
21433;BME280;18592;49.708;10.900;2024-03-25T06:08:50;97767.72;;;14.84;55.07
21433;BME280;18592;49.708;10.900;2024-03-25T06:11:00;97770.97;;;14.86;55.16
21433;BME280;18592;49.708;10.900;2024-03-25T06:13:02;97772.63;;;14.87;55.25
21433;BME280;18592;49.708;10.900;2024-03-25T06:15:02;97768.72;;;14.88;55.10
21433;BME280;18592;49.708;10.900;2024-03-25T06:17:03;97775.56;;;14.90;55.31
21433;BME280;18592;49.708;10.900;2024-03-25T06:19:04;97771.41;;;14.93;54.81
21433;BME280;18592;49.708;10.900;2024-03-25T06:21:04;97760.44;;;14.93;54.80
21433;BME280;18592;49.708;10.900;2024-03-25T06:23:05;97763.16;;;14.93;54.87
21433;BME280;18592;49.708;10.900;2024-03-25T06:25:05;97766.47;;;14.95;55.15
21433;BME280;18592;49.708;10.900;2024-03-25T06:27:06;97765.31;;;14.96;54.91
21433;BME280;18592;49.708;10.900;2024-03-25T06:29:09;97761.47;;;14.97;54.91
21433;BME280;18592;49.708;10.900;2024-03-25T06:31:09;97765.31;;;14.96;54.94
21433;BME280;18592;49.708;10.900;2024-03-25T06:33:28;97768.06;;;14.96;55.11
21433;BME280;18592;49.708;10.900;2024-03-25T06:35:48;97769.72;;;14.97;55.17
21433;BME280;18592;49.708;10.900;2024-03-25T06:37:48;97776.81;;;14.98;54.74
21433;BME280;18592;49.708;10.900;2024-03-25T06:39:54;97780.38;;;14.98;54.97
21433;BME280;18592;49.708;10.900;2024-03-25T06:41:54;97778.47;;;14.99;54.95
21433;BME280;18592;49.708;10.900;2024-03-25T06:43:55;97787.50;;;14.99;54.91
21433;BME280;18592;49.708;10.900;2024-03-25T06:45:55;97786.91;;;15.02;54.95
21433;BME280;18592;49.708;10.900;2024-03-25T06:47:56;97785.78;;;15.03;55.09
21433;BME280;18592;49.708;10.900;2024-03-25T06:49:58;97786.28;;;15.05;55.07
21433;BME280;18592;49.708;10.900;2024-03-25T06:51:58;97790.91;;;15.10;54.85
21433;BME280;18592;49.708;10.900;2024-03-25T06:54:06;97796.09;;;15.11;54.80
21433;BME280;18592;49.708;10.900;2024-03-25T06:56:06;97801.28;;;15.13;54.81
21433;BME280;18592;49.708;10.900;2024-03-25T06:58:07;97799.59;;;15.17;54.92
21433;BME280;18592;49.708;10.900;2024-03-25T07:00:07;97805.56;;;15.19;54.74
21433;BME280;18592;49.708;10.900;2024-03-25T07:02:13;97808.31;;;15.19;54.15
21433;BME280;18592;49.708;10.900;2024-03-25T07:04:13;97802.53;;;15.20;54.54
21433;BME280;18592;49.708;10.900;2024-03-25T07:06:14;97811.81;;;15.24;54.54
21433;BME280;18592;49.708;10.900;2024-03-25T07:08:15;97801.66;;;15.25;54.57
21433;BME280;18592;49.708;10.900;2024-03-25T07:10:16;97811.22;;;15.27;54.24
21433;BME280;18592;49.708;10.900;2024-03-25T07:12:16;97806.53;;;15.28;54.16
21433;BME280;18592;49.708;10.900;2024-03-25T07:14:17;97820.78;;;15.30;54.05
21433;BME280;18592;49.708;10.900;2024-03-25T07:16:17;97811.41;;;15.31;54.34
21433;BME280;18592;49.708;10.900;2024-03-25T07:18:26;97813.88;;;15.33;53.97
21433;BME280;18592;49.708;10.900;2024-03-25T07:20:27;97819.06;;;15.34;54.32
21433;BME280;18592;49.708;10.900;2024-03-25T07:22:40;97825.06;;;15.36;54.32
21433;BME280;18592;49.708;10.900;2024-03-25T07:24:45;97814.91;;;15.37;54.23
21433;BME280;18592;49.708;10.900;2024-03-25T07:26:52;97816.53;;;15.38;54.07
21433;BME280;18592;49.708;10.900;2024-03-25T07:29:06;97826.13;;;15.40;54.07
21433;BME280;18592;49.708;10.900;2024-03-25T07:31:06;97826.63;;;15.42;54.26
21433;BME280;18592;49.708;10.900;2024-03-25T07:33:07;97820.00;;;15.43;53.81
21433;BME280;18592;49.708;10.900;2024-03-25T07:35:08;97828.81;;;15.45;53.76
21433;BME280;18592;49.708;10.900;2024-03-25T07:37:10;97823.00;;;15.47;53.65
21433;BME280;18592;49.708;10.900;2024-03-25T07:39:10;97830.41;;;15.46;53.52
21433;BME280;18592;49.708;10.900;2024-03-25T07:41:11;97824.66;;;15.48;53.41
21433;BME280;18592;49.708;10.900;2024-03-25T07:43:11;97828.22;;;15.48;53.39
21433;BME280;18592;49.708;10.900;2024-03-25T07:45:12;97837.56;;;15.47;53.05
21433;BME280;18592;49.708;10.900;2024-03-25T07:47:12;97843.03;;;15.47;53.20
21433;BME280;18592;49.708;10.900;2024-03-25T07:49:13;97834.81;;;15.47;53.47
21433;BME280;18592;49.708;10.900;2024-03-25T07:51:13;97840.00;;;15.49;53.73
21433;BME280;18592;49.708;10.900;2024-03-25T07:53:14;97841.31;;;15.51;53.58
21433;BME280;18592;49.708;10.900;2024-03-25T07:55:15;97831.47;;;15.50;53.22
21433;BME280;18592;49.708;10.900;2024-03-25T07:57:15;97842.97;;;15.52;53.26
21433;BME280;18592;49.708;10.900;2024-03-25T07:59:16;97837.97;;;15.54;53.52
21433;BME280;18592;49.708;10.900;2024-03-25T08:01:30;97844.28;;;15.55;53.50
21433;BME280;18592;49.708;10.900;2024-03-25T08:03:30;97845.94;;;15.56;53.70
21433;BME280;18592;49.708;10.900;2024-03-25T08:05:31;97844.53;;;15.58;53.18
21433;BME280;18592;49.708;10.900;2024-03-25T08:07:31;97838.72;;;15.60;53.44
21433;BME280;18592;49.708;10.900;2024-03-25T08:09:32;97842.78;;;15.62;53.36
21433;BME280;18592;49.708;10.900;2024-03-25T08:11:33;97845.22;;;15.64;53.55
21433;BME280;18592;49.708;10.900;2024-03-25T08:13:43;97846.56;;;15.66;53.51
21433;BME280;18592;49.708;10.900;2024-03-25T08:15:44;97854.53;;;15.68;53.59
21433;BME280;18592;49.708;10.900;2024-03-25T08:17:44;97853.09;;;15.70;53.51
21433;BME280;18592;49.708;10.900;2024-03-25T08:19:45;97844.53;;;15.72;53.66
21433;BME280;18592;49.708;10.900;2024-03-25T08:21:45;97846.69;;;15.75;53.21
21433;BME280;18592;49.708;10.900;2024-03-25T08:23:46;97847.19;;;15.77;53.65
21433;BME280;18592;49.708;10.900;2024-03-25T08:25:46;97846.81;;;15.83;53.96
21433;BME280;18592;49.708;10.900;2024-03-25T08:27:47;97847.84;;;15.87;53.83
21433;BME280;18592;49.708;10.900;2024-03-25T08:29:47;97841.75;;;15.91;53.25
21433;BME280;18592;49.708;10.900;2024-03-25T08:31:51;97849.38;;;15.94;53.47
21433;BME280;18592;49.708;10.900;2024-03-25T08:33:57;97852.03;;;15.99;53.66
21433;BME280;18592;49.708;10.900;2024-03-25T08:35:57;97852.47;;;16.06;54.19
21433;BME280;18592;49.708;10.900;2024-03-25T08:37:58;97853.38;;;16.15;54.53
21433;BME280;18592;49.708;10.900;2024-03-25T08:39:58;97852.34;;;16.24;54.25
21433;BME280;18592;49.708;10.900;2024-03-25T08:41:59;97850.72;;;16.37;54.47
21433;BME280;18592;49.708;10.900;2024-03-25T08:44:00;97854.59;;;16.49;54.25
21433;BME280;18592;49.708;10.900;2024-03-25T08:46:00;97847.50;;;16.62;54.21
21433;BME280;18592;49.708;10.900;2024-03-25T08:48:01;97844.72;;;16.76;54.59
21433;BME280;18592;49.708;10.900;2024-03-25T08:50:02;97849.91;;;16.91;54.25
21433;BME280;18592;49.708;10.900;2024-03-25T08:52:03;97844.38;;;17.04;53.85
21433;BME280;18592;49.708;10.900;2024-03-25T08:54:03;97844.31;;;17.18;53.98
21433;BME280;18592;49.708;10.900;2024-03-25T08:56:04;97840.41;;;17.33;53.68
21433;BME280;18592;49.708;10.900;2024-03-25T08:58:05;97838.06;;;17.48;53.30
21433;BME280;18592;49.708;10.900;2024-03-25T09:00:06;97838.88;;;17.62;53.07
21433;BME280;18592;49.708;10.900;2024-03-25T09:02:10;97831.94;;;17.73;52.52
21433;BME280;18592;49.708;10.900;2024-03-25T09:04:11;97836.72;;;17.82;51.60
21433;BME280;18592;49.708;10.900;2024-03-25T09:06:11;97836.28;;;17.88;51.38
21433;BME280;18592;49.708;10.900;2024-03-25T09:08:12;97824.59;;;17.91;51.05
21433;BME280;18592;49.708;10.900;2024-03-25T09:10:12;97834.19;;;17.94;50.34
21433;BME280;18592;49.708;10.900;2024-03-25T09:12:32;97832.72;;;17.96;49.93
21433;BME280;18592;49.708;10.900;2024-03-25T09:14:33;97832.72;;;17.96;49.48
21433;BME280;18592;49.708;10.900;2024-03-25T09:16:34;97825.28;;;17.97;49.53
21433;BME280;18592;49.708;10.900;2024-03-25T09:18:34;97828.84;;;17.97;49.60
21433;BME280;18592;49.708;10.900;2024-03-25T09:20:35;97831.59;;;17.97;49.36
21433;BME280;18592;49.708;10.900;2024-03-25T09:22:36;97825.59;;;17.95;49.41
21433;BME280;18592;49.708;10.900;2024-03-25T09:24:37;97823.66;;;17.96;49.39
21433;BME280;18592;49.708;10.900;2024-03-25T09:26:37;97827.22;;;17.96;49.38
21433;BME280;18592;49.708;10.900;2024-03-25T09:28:38;97825.75;;;17.99;49.23
21433;BME280;18592;49.708;10.900;2024-03-25T09:30:39;97814.94;;;18.02;49.50
21433;BME280;18592;49.708;10.900;2024-03-25T09:32:40;97826.31;;;18.09;49.46
21433;BME280;18592;49.708;10.900;2024-03-25T09:34:41;97814.00;;;18.15;49.04
21433;BME280;18592;49.708;10.900;2024-03-25T09:36:42;97817.63;;;18.24;48.84
21433;BME280;18592;49.708;10.900;2024-03-25T09:38:42;97810.19;;;18.33;48.69
21433;BME280;18592;49.708;10.900;2024-03-25T09:40:43;97822.56;;;18.45;48.71
21433;BME280;18592;49.708;10.900;2024-03-25T09:42:47;97818.91;;;18.58;47.92
21433;BME280;18592;49.708;10.900;2024-03-25T09:44:48;97828.53;;;18.69;47.26
21433;BME280;18592;49.708;10.900;2024-03-25T09:46:49;97828.22;;;18.79;47.45
21433;BME280;18592;49.708;10.900;2024-03-25T09:48:52;97823.84;;;18.86;47.14
21433;BME280;18592;49.708;10.900;2024-03-25T09:50:53;97820.91;;;18.91;46.69
21433;BME280;18592;49.708;10.900;2024-03-25T09:52:54;97823.34;;;18.93;46.44
21433;BME280;18592;49.708;10.900;2024-03-25T09:54:55;97820.09;;;18.91;45.15
21433;BME280;18592;49.708;10.900;2024-03-25T09:56:56;97816.03;;;18.88;44.79
21433;BME280;18592;49.708;10.900;2024-03-25T09:58:58;97819.78;;;18.84;44.08
21433;BME280;18592;49.708;10.900;2024-03-25T10:00:58;97812.47;;;18.79;43.95
21433;BME280;18592;49.708;10.900;2024-03-25T10:02:59;97814.56;;;18.74;43.58
21433;BME280;18592;49.708;10.900;2024-03-25T10:04:59;97814.22;;;18.67;43.17
21433;BME280;18592;49.708;10.900;2024-03-25T10:07:00;97813.06;;;18.59;42.97
21433;BME280;18592;49.708;10.900;2024-03-25T10:09:04;97810.59;;;18.49;41.62
21433;BME280;18592;49.708;10.900;2024-03-25T10:11:06;97809.09;;;18.43;42.63
21433;BME280;18592;49.708;10.900;2024-03-25T10:13:07;97811.81;;;18.34;42.09
21433;BME280;18592;49.708;10.900;2024-03-25T10:15:08;97803.66;;;18.29;42.50
21433;BME280;18592;49.708;10.900;2024-03-25T10:17:09;97805.94;;;18.27;42.58
21433;BME280;18592;49.708;10.900;2024-03-25T10:19:10;97796.84;;;18.27;42.77
21433;BME280;18592;49.708;10.900;2024-03-25T10:21:10;97801.88;;;18.25;42.46
21433;BME280;18592;49.708;10.900;2024-03-25T10:23:11;97795.53;;;18.24;42.65
21433;BME280;18592;49.708;10.900;2024-03-25T10:27:30;97793.59;;;18.25;42.59
21433;BME280;18592;49.708;10.900;2024-03-25T10:29:30;97784.50;;;18.24;42.55
21433;BME280;18592;49.708;10.900;2024-03-25T10:31:31;97796.06;;;18.26;42.84
21433;BME280;18592;49.708;10.900;2024-03-25T10:33:31;97787.13;;;18.29;42.82
21433;BME280;18592;49.708;10.900;2024-03-25T10:35:34;97790.69;;;18.30;42.42
21433;BME280;18592;49.708;10.900;2024-03-25T10:37:35;97785.19;;;18.30;42.39
21433;BME280;18592;49.708;10.900;2024-03-25T10:39:39;97782.75;;;18.28;42.27